createdAt,value
2022-08-05T00:23:44.313Z,21.44
2022-08-05T00:54:02.086Z,20.92
2022-08-05T01:24:13.145Z,20.34
2022-08-05T01:54:17.967Z,19.85
2022-08-05T02:24:23.163Z,19.41
2022-08-05T02:54:35.740Z,18.98
2022-08-05T03:24:40.179Z,18.55
2022-08-05T03:55:50.016Z,18.33
2022-08-05T04:25:10.979Z,18.20
2022-08-05T04:55:15.058Z,18.60
2022-08-05T05:25:19.101Z,19.88
2022-08-05T05:55:21.843Z,20.87
2022-08-05T06:26:13.405Z,22.56
2022-08-05T06:55:48.085Z,23.95
2022-08-05T07:25:56.434Z,25.65
2022-08-05T07:56:06.549Z,27.11
2022-08-05T08:26:29.434Z,28.80
2022-08-05T08:56:33.397Z,30.32
2022-08-05T09:26:36.975Z,31.75
2022-08-05T09:56:40.810Z,33.16
2022-08-05T10:26:55.107Z,33.52
2022-08-05T10:57:03.929Z,33.78
2022-08-05T11:27:06.862Z,34.74
2022-08-05T11:57:25.363Z,35.46
2022-08-05T12:27:32.792Z,36.31
2022-08-05T12:58:48.312Z,36.69
2022-08-05T13:28:00.770Z,36.94
2022-08-05T13:58:08.235Z,37.26
2022-08-05T14:28:26.059Z,36.47
2022-08-05T14:58:30.366Z,35.42
2022-08-05T15:28:33.196Z,34.50
2022-08-05T15:58:37.169Z,33.27
2022-08-05T16:28:41.232Z,31.47
2022-08-05T16:58:44.395Z,29.32
2022-08-05T17:28:47.929Z,27.00
2022-08-05T17:58:51.200Z,26.02
2022-08-05T18:28:56.327Z,25.25
2022-08-05T18:59:00.985Z,24.88
2022-08-05T19:29:06.976Z,24.15
2022-08-05T19:59:53.956Z,23.50
2022-08-05T20:29:33.770Z,22.79
2022-08-05T21:00:11.057Z,22.11
2022-08-05T21:30:02.689Z,21.83
2022-08-05T22:00:10.669Z,21.77
2022-08-05T22:30:14.904Z,21.78
2022-08-05T23:00:20.728Z,21.72
2022-08-05T23:30:27.172Z,21.56
